The Easy Runner Sodbury Slog
Skip Navigation Links
13 November 2016
HyperLink
Pos
Bib No
Fav
Share
Print
Name
Time
Chip Time
Category
Cat Pos
Gender
Gen Pos
Club
Pace
11349David GREEN1:00:15.91:00:14.9Top 31Male1UBACCC10.0 m/hr
21370Andy SALMON1:01:06.81:01:06.8Top 32Male2UBACCC 9.8 m/hr
31350Kit GRIERSON1:01:21.21:01:21.2Top 33Male3UBACCC 9.8 m/hr
4534Chris MCMILLAN1:01:45.91:01:45.2SenM1Male4WESTON AC 9.7 m/hr
5578Ciaran MCQUAIDE1:02:22.81:02:22.0SenM2Male5BRISTOL & WEST AC 9.6 m/hr
61375Ben TOPLEY1:03:31.41:03:31.4SenM3Male6UBACCC 9.4 m/hr
71051Anthony GLOVER1:03:52.91:03:52.5VM401Male7NORTHERN IRELAND MASTERS AA 9.4 m/hr
81347Tom DOBRA1:04:00.71:03:59.4SenM4Male8UBACCC 9.4 m/hr
91379Scott WATKINS1:05:03.11:05:01.7SenM5Male9UBACCC 9.2 m/hr
101346Will DAVIDSON1:05:31.31:05:31.3SenM6Male10UBACCC 9.2 m/hr
11581Martin BARTLETT1:05:57.21:05:56.0SenM7Male11  9.1 m/hr
121046Rob COWLARD1:06:36.71:06:35.3VM402Male12THORNBURY RUNNING CLUB 9.0 m/hr
132Dermot BAILIE1:06:55.61:06:54.5SenM8Male13EDINBURGH ATHLETIC CLUB 9.0 m/hr
141221Joseph DONWORTH1:07:02.71:07:01.7SenM9Male14FROME RUNNING CLUB 8.9 m/hr
15836William GANLEY1:07:43.81:07:39.3SenM10Male15BITTON ROAD RUNNERS 8.9 m/hr
161016Annabel GRANGER1:08:18.41:08:17.2Top 31Female1BRISTOL & WEST AC 8.8 m/hr
171362Tom MCGRATH1:08:34.51:08:34.0SenM11Male16UBACCC 8.7 m/hr
181360James LEWIS1:08:44.91:08:44.9SenM12Male17UBACCC 8.7 m/hr
19860Daryl PHILLIPS1:08:57.61:08:55.7SenM13Male18BRISTOL & WEST AC 8.7 m/hr
201355Laurence HILL1:08:58.31:08:52.0SenM14Male19UBACCC 8.7 m/hr
211133Simon TIMBRELL1:08:59.91:08:58.1VM403Male20CESSON TWINNING 8.7 m/hr
221186Lee STONE1:09:16.71:09:14.7VM404Male21FROME RUNNING CLUB 8.7 m/hr
231380Phillipa WILLIAMS1:09:21.51:09:20.7Top 32Female2UBACCC 8.7 m/hr
24729Dan LUTON1:10:06.31:10:05.1SenM15Male22  8.6 m/hr
256Paul O'MARA1:10:09.61:10:07.8SenM16Male23TYNE BRIDGE HARRIERS 8.6 m/hr
26163Steven JAMES1:10:11.71:10:09.6VM405Male24  8.5 m/hr
27326Colin TRAER1:10:32.11:10:29.0SenM17Male25BRISTOL & WEST AC 8.5 m/hr
28362Henry ORNA1:10:46.81:10:38.1SenM18Male26TOWN AND COUNTRY HARRIERS 8.5 m/hr
291373James THOMPSON1:10:59.21:10:53.2SenM19Male27UBACCC 8.5 m/hr
30349William SMITH1:11:04.51:11:03.5SenM20Male28SOUTHVILLE RC 8.4 m/hr
31206Thomas MILLER1:11:06.71:11:05.7SenM21Male29WICKWAR WUNNERS 8.4 m/hr
321354Mark HAWORTH1:11:10.51:11:10.0SenM22Male30UBACCC 8.4 m/hr
33227Leyton FLEET1:11:14.51:11:11.3VM406Male31FOREST OF DEAN AC 8.4 m/hr
34872Paul OXLEY1:11:16.61:11:10.2SenM23Male32  8.4 m/hr
35108Nick LEWIS1:11:28.31:10:56.1VM407Male33ALMOST ATHLETES 8.4 m/hr
36531Josh HARRIS1:11:28.41:11:27.4VM408Male34WESTON AC 8.4 m/hr
37800Matthew WHEELER1:11:56.31:11:55.1VM409Male35WESTON AC 8.3 m/hr
38899Mark TAYLOR1:12:08.31:12:06.5VM4010Male36FRAMPTON COTTERELL HARRIERS 8.3 m/hr
39109Gemma HARGRAVES1:12:14.81:12:13.6Top 33Female3ALMOST ATHLETES 8.3 m/hr
40663Andrew LANE1:12:21.71:12:18.4SenM24Male37  8.3 m/hr
41464Rob BRANCH1:12:22.01:12:14.1SenM25Male38SOUTHVILLE RC 8.3 m/hr
421181Peter LARMAN1:12:30.01:12:27.4VM4011Male39FROME RUNNING CLUB 8.3 m/hr
4328Clive ANDREWS1:12:40.41:12:38.4VM501Male40BLACK PEAR JOGGERS 8.3 m/hr
44919Matt JOHNSTONE1:12:40.91:12:38.2SenM26Male41THORNBURY RUNNING CLUB 8.3 m/hr
451356Tom HUTCHINSON1:12:52.91:12:48.3SenM27Male42UBACCC 8.2 m/hr
4650Matthew DURBIN1:13:03.81:13:00.8SenM28Male43  8.2 m/hr
47234John RUSSELL1:13:04.21:13:00.9VM4012Male44FOREST OF DEAN AC 8.2 m/hr
48378Martin KILB1:13:32.91:13:22.1VM4013Male45GREAT WESTERN RUNNERS 8.2 m/hr
49968Will HILLIER1:13:39.61:13:36.4VM4014Male46GREAT WESTERN RUNNERS 8.1 m/hr
501417Richard HALL1:13:42.61:13:34.6SenM29Male47  8.1 m/hr
511015Gordon EVERETT1:13:45.61:13:42.8VM4015Male48BRISTOL & WEST AC 8.1 m/hr
52393William GILLETT1:13:53.01:13:42.6SenM30Male49GREAT WESTERN RUNNERS 8.1 m/hr
53182Brendan GRIFFITHS1:13:58.91:13:58.1SenM31Male50FITQUEST RUNNING CLUB 8.1 m/hr
54709Chris WILLIAMS1:14:05.21:14:03.5VM4016Male51EMERSONS GREEN RUNNING CLUB 8.1 m/hr
551405John BILLETT1:14:36.11:14:29.9VM4017Male52  8.0 m/hr
5630Neil HERRON1:14:45.11:14:43.4VM502Male53BLACK PEAR JOGGERS 8.0 m/hr
57374Chris WADE1:15:08.41:14:33.1VM4018Male54  8.0 m/hr
581372Rosie STREET1:15:17.51:15:11.0SenF1Female4UBACCC 8.0 m/hr
59256Andrew JONES1:15:24.91:15:12.9SenM32Male55PENARTH AND DINAS RUNNERS 8.0 m/hr
60744Jonathan DOYLE1:16:00.31:15:58.4SenM33Male56EMERSONS GREEN RUNNING CLUB 7.9 m/hr
61724Stephanie KNOTT1:16:00.71:15:58.6SenF2Female5SWINDON STRIDERS 7.9 m/hr
62989Steve STRETTON1:16:05.81:16:02.6SenM34Male57  7.9 m/hr
63554Nina DAVIES1:16:09.41:16:07.9VL351Female6KINGSWOOD TRI 7.9 m/hr
641125John CURTIS1:16:09.81:16:04.8VM503Male58HOGWEED TROTTERS 7.9 m/hr
65991Kev OWEN1:16:11.91:16:02.0SenM35Male59KINGSWOOD TRI 7.9 m/hr
66450Andy BUSH1:16:32.01:16:28.7SenM36Male60EMERSONS GREEN RUNNING CLUB 7.8 m/hr
67786Stuart DIAMOND1:16:41.81:16:37.0VM4019Male61WESTON AC 7.8 m/hr
681345Izzy CRANER1:16:47.61:16:39.2SenF3Female7UBACCC 7.8 m/hr
691348Florence EMOND1:16:54.41:16:50.3SenF4Female8UBACCC 7.8 m/hr
70233Richard POWLES1:16:56.81:16:53.5VM4020Male62FOREST OF DEAN AC 7.8 m/hr
71487Stuart BRAZINGTON1:17:00.01:16:50.2VM4021Male63KINGSWOOD TRI 7.8 m/hr
72438Matt PANG1:17:06.81:16:30.9SenM37Male64KINGSWOOD TRI 7.8 m/hr
731378Will WATERHOUSE1:17:07.51:17:00.0SenM38Male65UBACCC 7.8 m/hr
74368Warwick FORTESCUE1:17:08.51:16:48.3VM504Male66  7.8 m/hr
751141Marc BOSTOCK1:17:18.61:17:13.8SenM39Male67WESTON AC 7.8 m/hr
7666Gabriel ROSSER1:17:21.11:17:09.6SenM40Male68  7.8 m/hr
77226Robert FREEMAN1:17:25.51:17:16.7VM4022Male69FOREST OF DEAN AC 7.7 m/hr
781191Richard HILLS1:17:36.71:17:25.8VM4023Male70  7.7 m/hr
79852Liz SANIGAR1:17:38.01:17:33.5VL352Female9BITTON ROAD RUNNERS 7.7 m/hr
80496Steven CASTLE1:17:38.21:17:30.2SenM41Male71EMERSONS GREEN RUNNING CLUB 7.7 m/hr
81356Mariano SANCHEZ-LUPPI1:17:38.61:17:31.2VM4024Male72SALT AND SHAM CYCLE CLUB 7.7 m/hr
82822Dean DREW1:17:54.01:17:50.0VM4025Male73EMERSONS GREEN RUNNING CLUB 7.7 m/hr
831357Tom JOY1:17:58.31:17:51.7SenM42Male74UBACCC 7.7 m/hr
841352Josephine HARRISON1:17:58.51:17:53.1SenF5Female10UBACCC 7.7 m/hr
851198Leyton GREEN1:18:08.31:18:03.5VM4026Male75YEOVIL TOWN RRC 7.7 m/hr
86704Neil NEWMAN1:18:11.51:18:08.4VM4027Male76EMERSONS GREEN RUNNING CLUB 7.7 m/hr
8764Scott BENTLEY1:18:16.51:18:05.6SenM43Male77  7.7 m/hr
88926Rob COLES1:18:21.31:18:15.9VM4028Male78FITQUEST RUNNING CLUB 7.7 m/hr
891359Harry LEONARD1:18:29.61:18:07.3SenM44Male79UBACCC 7.6 m/hr
90719Richard HARRIS1:18:42.51:18:36.8VM4029Male80EMERSONS GREEN RUNNING CLUB 7.6 m/hr
91879Stuart PRICE1:19:05.11:18:52.2VM4030Male81BRISTOL & WEST AC 7.6 m/hr
92513Ben VINCENT1:19:15.51:19:12.2SenM45Male82FRAMPTON COTTERELL HARRIERS 7.6 m/hr
93341Paul HILBORNE1:19:24.51:19:20.3VM4031Male83SOUTHVILLE RC 7.6 m/hr
941296Michael PARTNER1:19:26.01:19:21.4VM4032Male84CHIPPENHAM HARRIERS 7.6 m/hr
95230Rob LESTER1:19:33.81:19:23.9VM4033Male85FOREST OF DEAN AC 7.5 m/hr
961337Nick WARREN1:19:43.81:19:32.7SenM46Male86HALDON TRAIL RUNNERS 7.5 m/hr
97639Daniel HOUGHTON1:19:53.91:19:44.1SenM47Male87KINGSWOOD TRI 7.5 m/hr
981415Nick ROBERTS1:20:02.81:19:50.8SenM48Male88  7.5 m/hr
9927Gary MILES1:20:09.91:20:01.2VM4034Male89EVESHAM VALE RUNNING CLUB 7.5 m/hr
100654Adam GREENAWAY1:20:09.91:20:08.4SenM49Male90HOBBS HOUSE BAKERY 7.5 m/hr
fb

HyperLink Copyright (c) G Vincent, 2016